Accueil
METAR-TAF:

METAR-TAF

Aéroports :

Quimper, France

Aéroport de Quimper Cornouaille

latitude: 47-58N, longitude: 004-10W, altitude: 92 m

Observation

Le bulletin a été fait il y a 36 minutes, à 09:30 UTC
Vent 6 kt de nord/nord-ouest, variant entre ouest/nord-ouest et nord/nord-est
Température 11°C
Humidité 76%
Pression 1020 hPa
Visibilité 10 km ou plus
Nuages fragmentés à une hauteur de 1900 ft
Nuages fragmentés à une hauteur de 2500 ft
Ciel couvert à une hauteur de 4800 ft

METAR: LFRQ 280930Z AUTO 34006KT 300V020 9999 BKN019 BKN025 OVC048 11/07 Q1020 NOSIG

Heure: 12:06 (10:06 UTC)

Prévision

Le bulletin a été fait il y a 2 heures et 6 minutes, à 08:00 UTC
Prévision valable du 28 à 09 UTC au 28 à 18 UTC
Vent 8 kt de nord
Visibilité 10 km ou plus
Nuages fragmentés à une hauteur de 4000 ft

TAF: LFRQ 280800Z 2809/2818 35008KT 9999 BKN040

Observations et prévisions météorologiques de plus de 4000 aéroports (messages METAR et TAF).

Les stations disponibles sont représentées par des disques jaunes et rouges sur la carte.

Passer la souris dessus pour voir le nom de la station.

Cliquer dessus pour voir les observations et prévisions météorologiques.

Pour changer de carte: cliquez sur les boutons verts avec une croix noire pour zoomer, sur le bouton vert avec un tiret pour effectuer un zoom arrière, ou sur les flèches vertes pour les cartes adjacentes.


METAR-TAF: